FYWB

Details ICAO FYWB (WVB)
Name WALVIS BAY
Region Namibia
Timezone Africa/Windhoek (UTC+2.0)
Plans Departing 24
Arriving 25
Stats Elevation 299 ft / 91 m (AMSL)
Location -22.979900° 14.645300°
Runways 1
Magnetic Variation 12.800° W
Sunrise 2018-12-16 04:12:10 UTC / 2018-12-16 06:12:10 Local
Sunset 2018-12-16 17:44:25 UTC / 2018-12-16 19:44:25 Local
Advertisement - Login to hide

Runways

ID Width Length Bearing (true/mag) Surface Threshold Overrun Markings Lighting
09 98 ft / 30 m 6,984 ft / 2,129 m 71.49° / 84.29° ASPHALT 0 ft / 0 m 70 ft / 21 m APP EDGE THRESHOLD
27 98 ft / 30 m 6,984 ft / 2,129 m 251.48° / 264.28° ASPHALT 0 ft / 0 m 70 ft / 21 m APP EDGE THRESHOLD

Map

Weather


0- 5 10 15 20 25 30 35+ Temperature / °C

Clouds and Precipitation
Forecast for 2018-12-16 06:00 UTC. Updated 22 minutes ago

Ground ~20,000 ft ~40,000 ft Winds

METAR

FYWB 160300Z 36008KT 9999 OVC012 17/14 Q1015

TAF

Not found

Frequencies

Approach 122.50 MHz
Tower 122.50 MHz
Warning: Do not use this data for real-world aviation or navigation. No guarantee of current accuracy is given.